Time;durP1;ratioP1;P1;durP2;ratioP2;P2;SDS_P1;SDS_P2;PMS_P1;PMS_P2;Temp;Humidity;BMP_temperature;BMP_pressure;BME280_temperature;BME280_humidity;BME280_pressure;Samples;Min_cycle;Max_cycle;Signal;HPM_P1;HPM_P2
2023/03/04 00:01:55;;;;;;;3.10;1.90;;;17.00;60.60;;;;;;5087575;28;20992;-46
2023/03/04 00:04:26;;;;;;;5.90;1.97;;;17.00;60.60;;;;;;5077132;28;20206;-46
2023/03/04 00:06:57;;;;;;;4.20;1.80;;;16.90;60.50;;;;;;5074227;28;20522;-46
2023/03/04 00:09:29;;;;;;;4.10;1.50;;;16.90;60.60;;;;;;5091716;28;20189;-46
2023/03/04 00:12:01;;;;;;;3.67;1.77;;;16.90;60.60;;;;;;5089076;28;20189;-46
2023/03/04 00:14:29;;;;;;;2.30;1.27;;;16.90;60.60;;;;;;5071147;28;20856;-46
2023/03/04 00:17:03;;;;;;;3.57;1.60;;;16.90;60.70;;;;;;5084176;28;20221;-47
2023/03/04 00:19:37;;;;;;;3.60;1.57;;;16.90;60.60;;;;;;5089429;28;20201;-47
2023/03/04 00:22:09;;;;;;;3.70;1.50;;;16.90;60.60;;;;;;5089764;28;20205;-46
2023/03/04 00:24:39;;;;;;;2.40;1.40;;;16.90;60.60;;;;;;5085843;28;20224;-46
2023/03/04 00:27:13;;;;;;;3.13;1.57;;;16.90;60.80;;;;;;5069108;28;20205;-46
2023/03/04 00:29:45;;;;;;;3.10;1.73;;;16.90;60.60;;;;;;5072551;28;20201;-45
2023/03/04 00:32:17;;;;;;;3.60;1.50;;;16.90;60.70;;;;;;5091115;28;20408;-46
2023/03/04 00:34:49;;;;;;;2.83;1.47;;;16.90;60.70;;;;;;5088674;28;20220;-46
2023/03/04 00:37:20;;;;;;;3.30;1.40;;;16.80;60.50;;;;;;5091882;28;20227;-45
2023/03/04 00:39:51;;;;;;;3.13;1.40;;;16.90;60.60;;;;;;5060869;28;20267;-46
2023/03/04 00:42:21;;;;;;;1.90;1.10;;;16.90;61.20;;;;;;5077401;28;20597;-46
2023/03/04 00:45:08;;;;;;;2.90;1.40;;;16.80;60.60;;;;;;5071146;28;20205;-46
2023/03/04 00:47:38;;;;;;;2.80;1.30;;;16.80;60.60;;;;;;5044166;28;20289;-46
2023/03/04 00:50:06;;;;;;;3.03;1.70;;;16.80;60.50;;;;;;5052355;28;20205;-46
2023/03/04 00:52:37;;;;;;;2.13;1.10;;;16.80;60.50;;;;;;5082723;28;20577;-45
2023/03/04 00:55:09;;;;;;;3.40;1.50;;;16.80;60.50;;;;;;5064367;28;20231;-46
2023/03/04 00:57:39;;;;;;;4.63;1.53;;;16.80;60.50;;;;;;5089599;28;20762;-46
2023/03/04 01:00:14;;;;;;;3.17;1.60;;;16.80;60.50;;;;;;5084154;28;20198;-46
2023/03/04 01:02:55;;;;;;;3.33;1.40;;;16.80;60.40;;;;;;5072982;28;20197;-46
2023/03/04 01:05:25;;;;;;;3.30;1.33;;;16.80;60.50;;;;;;5084434;28;20205;-46
2023/03/04 01:07:56;;;;;;;3.80;1.63;;;16.80;60.50;;;;;;5088211;28;20227;-46
2023/03/04 01:10:28;;;;;;;2.77;1.60;;;16.70;60.40;;;;;;5059572;28;20216;-46
2023/03/04 01:12:56;;;;;;;4.70;1.50;;;16.80;60.30;;;;;;5077989;28;20649;-46
2023/03/04 01:15:26;;;;;;;3.70;1.50;;;16.80;60.40;;;;;;5075953;28;20227;-46
2023/03/04 01:17:56;;;;;;;3.20;1.47;;;16.70;60.30;;;;;;5066036;28;20224;-46
2023/03/04 01:20:26;;;;;;;7.23;1.80;;;16.70;60.30;;;;;;5080977;28;20640;-45
2023/03/04 01:22:54;;;;;;;3.03;1.53;;;16.70;60.30;;;;;;5075105;28;20524;-46
2023/03/04 01:25:23;;;;;;;4.20;1.50;;;16.70;60.00;;;;;;5080447;28;20673;-46
2023/03/04 01:27:55;;;;;;;3.73;1.73;;;16.70;60.20;;;;;;5073669;28;20206;-45
2023/03/04 01:30:30;;;;;;;2.07;1.40;;;16.70;60.10;;;;;;5069082;28;20272;-46
2023/03/04 01:33:01;;;;;;;3.60;1.87;;;16.70;60.20;;;;;;5058847;28;20186;-46
2023/03/04 01:35:30;;;;;;;2.63;1.40;;;16.70;60.20;;;;;;5052405;28;20190;-46
2023/03/04 01:38:00;;;;;;;3.13;1.23;;;16.70;60.10;;;;;;5075738;28;20225;-46
2023/03/04 01:40:34;;;;;;;4.30;2.00;;;16.70;60.10;;;;;;5060916;28;20210;-46
2023/03/04 01:43:03;;;;;;;4.30;1.70;;;16.70;60.10;;;;;;5054535;28;20198;-46
2023/03/04 01:45:34;;;;;;;3.53;1.20;;;16.70;60.10;;;;;;5067223;28;20574;-46
2023/03/04 01:48:12;;;;;;;2.87;1.50;;;16.70;60.00;;;;;;5050484;28;20232;-46
2023/03/04 01:50:41;;;;;;;2.20;1.27;;;16.70;60.00;;;;;;5068486;28;20280;-46
2023/03/04 01:53:22;;;;;;;4.37;1.70;;;16.70;60.10;;;;;;5078939;28;20216;-46
2023/03/04 01:56:15;;;;;;;3.23;1.50;;;16.70;60.00;;;;;;5041169;28;20210;-46
2023/03/04 01:58:42;;;;;;;2.93;1.30;;;16.70;60.10;;;;;;5050218;28;20221;-46
2023/03/04 02:01:17;;;;;;;2.17;1.10;;;16.70;60.00;;;;;;5077329;28;20255;-46
2023/03/04 02:03:48;;;;;;;4.73;1.40;;;16.70;60.00;;;;;;5070529;28;20209;-46
2023/03/04 02:06:21;;;;;;;2.87;1.10;;;16.60;60.00;;;;;;5071470;28;20202;-46
2023/03/04 02:08:53;;;;;;;3.47;1.53;;;16.60;59.90;;;;;;5064596;28;20941;-46
2023/03/04 02:11:20;;;;;;;4.13;1.40;;;16.60;60.00;;;;;;5076788;28;20206;-46
2023/03/04 02:13:52;;;;;;;2.57;1.20;;;16.60;60.10;;;;;;5058498;28;20533;-46
2023/03/04 02:16:23;;;;;;;4.43;1.20;;;16.60;60.00;;;;;;5067387;28;20205;-46
2023/03/04 02:18:55;;;;;;;3.47;1.30;;;16.60;60.00;;;;;;5084716;28;20229;-46
2023/03/04 02:21:34;;;;;;;3.50;1.10;;;16.60;60.00;;;;;;5057897;28;20653;-46
2023/03/04 02:24:19;;;;;;;2.97;1.30;;;16.60;60.00;;;;;;5072991;28;20689;-46
2023/03/04 02:26:59;;;;;;;3.77;1.37;;;16.60;60.00;;;;;;5056949;28;20221;-46
2023/03/04 02:29:32;;;;;;;4.13;1.53;;;16.60;59.90;;;;;;5050785;28;20200;-46
2023/03/04 02:32:01;;;;;;;1.73;1.00;;;16.60;60.00;;;;;;5050130;28;20197;-46
2023/03/04 02:34:34;;;;;;;2.47;1.20;;;16.60;60.00;;;;;;5019717;28;20206;-46
2023/03/04 02:37:03;;;;;;;3.33;1.40;;;16.60;59.90;;;;;;5068188;28;20788;-45
2023/03/04 02:39:45;;;;;;;3.30;1.43;;;16.60;59.90;;;;;;5034451;28;20237;-46
2023/03/04 02:42:17;;;;;;;3.20;1.33;;;16.60;59.90;;;;;;5066522;28;20759;-46
2023/03/04 02:44:48;;;;;;;3.00;1.30;;;16.60;59.80;;;;;;5046799;28;20775;-46
2023/03/04 02:47:19;;;;;;;2.67;1.23;;;16.60;59.90;;;;;;5050932;28;20819;-45
2023/03/04 02:49:56;;;;;;;2.80;1.30;;;16.50;59.80;;;;;;5050163;28;20189;-46
2023/03/04 02:52:25;;;;;;;4.17;1.30;;;16.60;59.80;;;;;;5062005;28;20639;-46
2023/03/04 02:54:57;;;;;;;4.30;1.67;;;16.60;59.80;;;;;;5048523;28;20235;-46
2023/03/04 02:57:27;;;;;;;4.17;1.30;;;16.60;59.80;;;;;;5066578;28;20192;-46
2023/03/04 02:59:59;;;;;;;4.33;1.23;;;16.50;59.60;;;;;;5065699;28;20217;-46
2023/03/04 03:02:29;;;;;;;5.43;1.77;;;16.60;59.70;;;;;;5075221;28;20181;-46
2023/03/04 03:04:58;;;;;;;3.27;1.10;;;16.60;59.60;;;;;;5060464;28;20228;-46
2023/03/04 03:07:25;;;;;;;1.87;1.20;;;16.50;59.60;;;;;;5066139;28;20193;-46
2023/03/04 03:09:55;;;;;;;4.33;1.50;;;16.50;59.60;;;;;;5065536;28;20232;-45
2023/03/04 03:12:24;;;;;;;3.13;1.43;;;16.50;59.50;;;;;;5066005;28;20624;-46
2023/03/04 03:14:55;;;;;;;1.97;0.97;;;16.50;59.50;;;;;;5062246;28;20205;-46
2023/03/04 03:17:23;;;;;;;1.93;1.10;;;16.50;59.50;;;;;;5066313;28;20206;-46
2023/03/04 03:19:53;;;;;;;2.93;1.40;;;16.50;59.40;;;;;;5065180;28;20222;-45
2023/03/04 03:22:21;;;;;;;2.83;1.40;;;16.50;59.50;;;;;;5048103;28;20194;-45
2023/03/04 03:24:51;;;;;;;3.40;1.20;;;16.50;59.50;;;;;;5058387;28;20193;-46
2023/03/04 03:27:22;;;;;;;3.27;1.20;;;16.50;59.50;;;;;;5065458;28;20216;-46
2023/03/04 03:29:51;;;;;;;4.60;1.43;;;16.50;60.10;;;;;;5070433;28;20202;-46
2023/03/04 03:32:22;;;;;;;3.87;1.43;;;16.50;59.50;;;;;;5070421;28;20598;-46
2023/03/04 03:34:55;;;;;;;3.93;1.50;;;16.50;59.50;;;;;;5066921;28;20283;-46
2023/03/04 03:37:24;;;;;;;2.80;1.00;;;16.50;59.50;;;;;;5069920;28;20550;-45
2023/03/04 03:39:54;;;;;;;2.73;1.40;;;16.50;59.50;;;;;;5066953;28;20838;-45
2023/03/04 03:42:21;;;;;;;2.50;1.00;;;16.50;59.50;;;;;;5073456;28;20536;-46
2023/03/04 03:45:06;;;;;;;1.73;1.07;;;16.50;59.50;;;;;;5067220;28;20272;-45
2023/03/04 03:47:40;;;;;;;3.13;1.00;;;16.50;59.50;;;;;;5078268;28;20200;-46
2023/03/04 03:50:25;;;;;;;3.33;1.33;;;16.50;59.50;;;;;;5070432;28;20226;-46
2023/03/04 03:52:56;;;;;;;3.07;1.20;;;16.50;59.50;;;;;;5067268;28;20197;-46
2023/03/04 03:55:39;;;;;;;4.80;1.07;;;16.50;59.50;;;;;;5054495;28;20288;-46
2023/03/04 03:58:08;;;;;;;7.30;1.37;;;16.50;59.50;;;;;;5069851;28;20239;-45
2023/03/04 04:00:39;;;;;;;3.20;1.30;;;16.40;59.40;;;;;;5067091;28;20299;-45
2023/03/04 04:03:14;;;;;;;3.33;1.20;;;16.50;59.40;;;;;;5076181;28;20222;-46
2023/03/04 04:05:45;;;;;;;2.10;0.90;;;16.40;59.20;;;;;;5074860;28;20607;-46
2023/03/04 04:08:18;;;;;;;2.10;1.17;;;16.40;59.20;;;;;;5074230;28;20627;-46
2023/03/04 04:10:44;;;;;;;4.30;1.20;;;16.40;59.30;;;;;;5049353;28;20851;-45
2023/03/04 04:13:21;;;;;;;5.40;1.10;;;16.40;59.20;;;;;;5068784;28;20197;-46
2023/03/04 04:15:54;;;;;;;3.93;1.07;;;16.40;59.20;;;;;;5065819;28;20221;-46
2023/03/04 04:18:24;;;;;;;2.30;1.00;;;16.40;59.20;;;;;;5053336;28;20784;-46
2023/03/04 04:20:58;;;;;;;2.53;1.03;;;16.40;59.20;;;;;;5066392;28;20202;-46
2023/03/04 04:23:27;;;;;;;2.03;1.20;;;16.40;59.20;;;;;;5068418;28;20206;-46
2023/03/04 04:25:58;;;;;;;2.10;0.83;;;16.40;59.80;;;;;;5051464;28;20192;-46
2023/03/04 04:28:28;;;;;;;2.33;1.23;;;16.40;59.20;;;;;;5065852;28;20213;-46
2023/03/04 04:30:57;;;;;;;3.30;1.20;;;16.40;59.20;;;;;;5067507;28;20553;-46
2023/03/04 04:33:28;;;;;;;1.73;0.73;;;16.40;59.20;;;;;;5073307;28;20196;-46
2023/03/04 04:36:00;;;;;;;2.60;1.10;;;16.40;59.20;;;;;;5067147;28;20194;-46
2023/03/04 04:38:28;;;;;;;5.23;0.90;;;16.40;59.20;;;;;;5071734;28;20198;-46
2023/03/04 04:40:58;;;;;;;1.70;0.83;;;16.40;59.20;;;;;;5063270;28;20236;-46
2023/03/04 04:43:29;;;;;;;2.37;1.00;;;16.40;59.10;;;;;;5060661;28;20203;-46
2023/03/04 04:45:59;;;;;;;3.73;1.10;;;16.40;59.20;;;;;;5063057;28;20217;-46
2023/03/04 04:48:30;;;;;;;2.60;1.23;;;16.40;59.20;;;;;;5081891;28;20262;-45
2023/03/04 04:51:02;;;;;;;3.03;0.77;;;16.40;59.10;;;;;;5077673;28;20218;-46
2023/03/04 04:53:31;;;;;;;4.63;1.27;;;16.40;59.20;;;;;;5055315;28;20213;-46
2023/03/04 04:56:25;;;;;;;2.53;0.87;;;16.40;59.10;;;;;;5088384;28;20197;-46
2023/03/04 04:59:03;;;;;;;2.37;1.07;;;16.40;59.10;;;;;;5065438;28;20212;-45
2023/03/04 05:01:35;;;;;;;2.40;1.00;;;16.40;59.10;;;;;;5065116;28;20193;-45
2023/03/04 05:04:06;;;;;;;2.53;1.17;;;16.40;59.10;;;;;;5037981;28;20210;-46
2023/03/04 05:06:52;;;;;;;4.43;1.40;;;16.40;59.10;;;;;;5067063;28;20193;-46
2023/03/04 05:09:21;;;;;;;2.80;1.10;;;16.30;59.10;;;;;;5069338;28;20189;-46
2023/03/04 05:11:57;;;;;;;2.77;1.13;;;16.40;59.10;;;;;;5068242;28;20705;-46
2023/03/04 05:14:24;;;;;;;4.17;1.30;;;16.40;59.10;;;;;;5068614;28;20205;-45
2023/03/04 05:16:58;;;;;;;2.17;0.87;;;16.30;59.00;;;;;;5067746;28;20220;-45
2023/03/04 05:19:28;;;;;;;2.30;1.00;;;16.30;59.00;;;;;;5069475;28;20217;-46
2023/03/04 05:21:59;;;;;;;2.10;0.97;;;16.30;59.00;;;;;;5070413;28;20365;-46
2023/03/04 05:24:28;;;;;;;4.30;1.30;;;16.30;59.60;;;;;;5072936;28;20186;-46
2023/03/04 05:27:00;;;;;;;2.07;0.90;;;16.30;59.00;;;;;;5065461;28;20190;-46
2023/03/04 05:29:32;;;;;;;3.23;1.17;;;16.30;59.60;;;;;;5051726;28;20198;-46
2023/03/04 05:32:01;;;;;;;2.13;0.90;;;16.40;59.00;;;;;;5071578;28;20212;-46
2023/03/04 05:34:30;;;;;;;2.50;0.70;;;16.30;58.90;;;;;;5070845;28;20204;-46
2023/03/04 05:36:59;;;;;;;2.57;1.00;;;16.30;58.90;;;;;;5076766;28;20280;-46
2023/03/04 05:39:30;;;;;;;1.73;0.70;;;16.40;59.00;;;;;;5061720;28;20281;-45
2023/03/04 05:41:57;;;;;;;2.47;0.90;;;16.30;58.90;;;;;;5078158;28;20242;-46
2023/03/04 05:44:26;;;;;;;3.07;0.90;;;16.30;59.00;;;;;;5050382;28;20190;-46
2023/03/04 05:46:55;;;;;;;2.80;0.80;;;16.30;58.90;;;;;;5067219;28;20208;-46
2023/03/04 05:49:24;;;;;;;2.33;1.07;;;16.30;58.90;;;;;;5063237;28;20783;-46
2023/03/04 05:51:55;;;;;;;2.60;0.63;;;16.30;58.90;;;;;;5047796;28;20698;-46
2023/03/04 05:54:24;;;;;;;3.67;1.43;;;16.30;58.80;;;;;;5065615;28;20216;-46
2023/03/04 05:56:54;;;;;;;2.60;1.10;;;16.30;58.80;;;;;;5061020;28;20420;-46
2023/03/04 05:59:23;;;;;;;5.00;1.00;;;16.30;58.80;;;;;;5043458;28;20213;-45
2023/03/04 06:01:55;;;;;;;2.70;0.90;;;16.30;58.70;;;;;;5067332;28;20198;-46
2023/03/04 06:04:23;;;;;;;3.17;0.90;;;16.30;58.60;;;;;;5063247;28;20210;-45
2023/03/04 06:06:52;;;;;;;3.13;1.07;;;16.30;58.60;;;;;;5073105;28;20827;-47
2023/03/04 06:09:26;;;;;;;6.17;0.73;;;16.30;58.70;;;;;;5066923;28;20192;-47
2023/03/04 06:11:57;;;;;;;2.70;1.03;;;16.30;58.60;;;;;;5042571;28;20202;-46
2023/03/04 06:14:24;;;;;;;2.47;0.70;;;16.30;58.60;;;;;;5070277;28;20223;-46
2023/03/04 06:16:55;;;;;;;1.57;0.53;;;16.30;58.60;;;;;;5058868;28;20276;-46
2023/03/04 06:19:27;;;;;;;3.53;0.97;;;16.30;58.50;;;;;;5066972;28;20708;-46
2023/03/04 06:21:55;;;;;;;1.20;0.70;;;16.30;58.50;;;;;;5062025;28;20206;-47
2023/03/04 06:24:28;;;;;;;3.23;1.00;;;16.30;58.40;;;;;;5070687;28;20229;-47
2023/03/04 06:27:00;;;;;;;2.27;0.90;;;16.30;58.30;;;;;;5069671;28;20210;-47
2023/03/04 06:29:27;;;;;;;1.80;0.53;;;16.20;58.20;;;;;;5068516;28;20205;-47
2023/03/04 06:31:54;;;;;;;1.97;0.80;;;16.20;58.20;;;;;;5060094;28;20213;-46
2023/03/04 06:34:23;;;;;;;2.43;0.80;;;16.30;58.10;;;;;;5046309;28;20206;-46
2023/03/04 06:36:55;;;;;;;3.37;1.00;;;16.20;58.10;;;;;;5038502;28;20186;-46
2023/03/04 06:39:25;;;;;;;3.40;0.77;;;16.20;58.10;;;;;;5063663;28;20225;-46
2023/03/04 06:41:57;;;;;;;3.27;1.00;;;16.20;58.10;;;;;;5066675;28;20233;-47
2023/03/04 06:44:26;;;;;;;1.63;0.77;;;16.20;58.10;;;;;;5066198;28;20547;-47
2023/03/04 06:46:55;;;;;;;2.83;0.90;;;16.10;58.10;;;;;;5064842;28;20503;-46
2023/03/04 06:49:26;;;;;;;2.23;0.97;;;16.20;58.10;;;;;;5054657;28;20194;-45
2023/03/04 06:51:58;;;;;;;2.53;0.87;;;16.20;58.00;;;;;;5063426;28;20201;-46
2023/03/04 06:54:28;;;;;;;2.23;0.90;;;16.20;58.10;;;;;;5059916;28;20858;-46
2023/03/04 06:56:58;;;;;;;2.53;0.70;;;16.20;58.00;;;;;;5034717;28;20217;-47
2023/03/04 06:59:30;;;;;;;0.83;0.30;;;16.20;58.00;;;;;;5061772;28;20467;-47
2023/03/04 07:01:58;;;;;;;2.97;0.60;;;16.20;58.00;;;;;;5053927;28;20198;-47
2023/03/04 07:04:27;;;;;;;1.47;1.00;;;16.20;58.00;;;;;;5065334;28;20216;-47
2023/03/04 07:06:59;;;;;;;1.23;0.50;;;16.20;58.00;;;;;;5065072;28;20191;-47
2023/03/04 07:09:28;;;;;;;3.77;0.90;;;16.20;58.00;;;;;;5065966;28;20201;-47
2023/03/04 07:11:58;;;;;;;2.10;0.80;;;16.10;58.00;;;;;;5070189;28;20193;-47
2023/03/04 07:14:26;;;;;;;2.30;0.80;;;16.20;58.00;;;;;;5057835;28;20210;-47
2023/03/04 07:16:59;;;;;;;3.13;0.77;;;16.20;58.00;;;;;;5064610;28;20213;-46
2023/03/04 07:19:29;;;;;;;1.53;0.90;;;16.20;58.00;;;;;;5021857;28;20267;-45
2023/03/04 07:22:01;;;;;;;2.27;0.70;;;16.20;58.00;;;;;;5046900;28;20520;-48
2023/03/04 07:24:32;;;;;;;2.23;0.60;;;16.20;58.00;;;;;;5063034;28;20283;-47
2023/03/04 07:27:03;;;;;;;2.00;1.23;;;16.20;58.00;;;;;;5059942;28;20206;-47
2023/03/04 07:29:33;;;;;;;1.63;0.80;;;16.10;57.90;;;;;;5073556;28;20200;-47
2023/03/04 07:32:11;;;;;;;2.93;0.87;;;16.20;57.90;;;;;;5050934;28;20186;-45
2023/03/04 07:34:39;;;;;;;1.40;0.90;;;16.10;57.80;;;;;;5049845;28;20194;-46
2023/03/04 07:37:14;;;;;;;2.23;0.63;;;16.20;57.80;;;;;;5065995;28;20197;-47
2023/03/04 07:39:44;;;;;;;2.40;0.70;;;16.20;57.80;;;;;;5050562;28;20338;-47
2023/03/04 07:42:16;;;;;;;2.30;1.00;;;16.20;57.70;;;;;;5074581;28;20236;-47
2023/03/04 07:44:47;;;;;;;2.50;0.80;;;16.20;57.70;;;;;;5049599;28;20198;-47
2023/03/04 07:47:23;;;;;;;1.70;0.77;;;16.10;57.70;;;;;;5070006;28;20225;-46
2023/03/04 07:49:55;;;;;;;2.20;0.83;;;16.20;57.70;;;;;;5060485;28;20498;-46
2023/03/04 07:52:25;;;;;;;2.60;0.90;;;16.20;57.60;;;;;;5067029;28;20616;-46
2023/03/04 07:54:56;;;;;;;3.67;0.87;;;16.10;57.60;;;;;;5067040;28;20236;-45
2023/03/04 07:57:25;;;;;;;2.10;0.80;;;16.20;57.60;;;;;;5066400;28;20240;-48
2023/03/04 07:59:57;;;;;;;3.97;0.63;;;16.20;57.60;;;;;;5052300;28;20221;-47
2023/03/04 08:02:27;;;;;;;1.20;0.50;;;16.20;57.60;;;;;;5064981;28;20205;-47
2023/03/04 08:04:56;;;;;;;1.70;0.77;;;16.20;58.20;;;;;;5063159;28;20233;-48
2023/03/04 08:07:39;;;;;;;1.97;0.70;;;16.20;57.50;;;;;;5069537;28;20276;-46
2023/03/04 08:10:12;;;;;;;2.13;0.80;;;16.20;57.50;;;;;;5066163;28;20196;-46
2023/03/04 08:12:42;;;;;;;2.20;0.90;;;16.20;57.40;;;;;;5069678;28;20194;-46
2023/03/04 08:15:13;;;;;;;2.33;0.83;;;16.20;57.40;;;;;;5068763;28;20225;-46
2023/03/04 08:17:45;;;;;;;2.07;0.73;;;16.20;57.40;;;;;;5071867;28;20193;-46
2023/03/04 08:20:15;;;;;;;1.40;0.60;;;16.20;57.40;;;;;;5064729;28;20632;-47
2023/03/04 08:22:46;;;;;;;1.67;0.60;;;16.20;57.30;;;;;;5049660;28;20213;-47
2023/03/04 08:25:13;;;;;;;1.60;0.60;;;16.20;57.30;;;;;;5068704;28;20205;-48
2023/03/04 08:27:46;;;;;;;2.13;0.63;;;16.20;57.30;;;;;;5061242;28;20216;-48
2023/03/04 08:30:16;;;;;;;0.93;0.57;;;16.20;57.20;;;;;;5048842;28;20196;-46
2023/03/04 08:32:47;;;;;;;1.63;0.80;;;16.20;57.20;;;;;;5066691;28;20205;-46
2023/03/04 08:35:18;;;;;;;1.83;0.90;;;16.20;57.20;;;;;;5067795;28;20360;-48
2023/03/04 08:37:50;;;;;;;2.73;0.80;;;16.20;57.20;;;;;;5065462;28;20634;-48
2023/03/04 08:40:29;;;;;;;2.33;0.60;;;16.20;57.10;;;;;;5050013;28;20290;-48
2023/03/04 08:42:59;;;;;;;1.83;1.00;;;16.20;57.20;;;;;;5071624;28;20240;-48
2023/03/04 08:45:30;;;;;;;1.80;0.93;;;16.20;57.10;;;;;;5077795;28;20284;-48
2023/03/04 08:47:59;;;;;;;3.03;0.60;;;16.20;57.10;;;;;;5077439;28;20581;-48
2023/03/04 08:50:31;;;;;;;2.50;0.80;;;16.30;57.20;;;;;;5066864;28;20205;-48
2023/03/04 08:53:07;;;;;;;10.77;2.30;;;16.20;57.10;;;;;;5079732;28;20201;-48
2023/03/04 08:55:36;;;;;;;22.13;4.50;;;16.20;57.70;;;;;;5074730;28;20258;-48
2023/03/04 08:58:08;;;;;;;32.90;7.10;;;16.20;57.60;;;;;;5055389;28;20638;-48
2023/03/04 09:00:42;;;;;;;22.60;5.27;;;16.30;57.60;;;;;;5066184;28;20220;-48
2023/03/04 09:03:12;;;;;;;23.57;5.27;;;16.20;59.00;;;;;;5047387;28;20196;-48
2023/03/04 09:05:44;;;;;;;31.67;5.90;;;16.30;58.70;;;;;;5079881;28;20206;-48
2023/03/04 09:08:15;;;;;;;25.27;5.43;;;16.30;58.80;;;;;;5052674;28;20647;-48
2023/03/04 09:10:44;;;;;;;20.13;4.47;;;16.30;58.60;;;;;;5067160;28;20523;-48
2023/03/04 09:13:15;;;;;;;19.43;4.10;;;16.30;58.20;;;;;;5049463;28;20202;-48
2023/03/04 09:15:49;;;;;;;13.30;3.60;;;16.30;58.10;;;;;;5076117;28;20197;-48
2023/03/04 09:18:20;;;;;;;10.40;3.23;;;16.30;58.00;;;;;;5062180;28;20319;-48
2023/03/04 09:20:51;;;;;;;16.00;3.83;;;16.30;57.80;;;;;;5062824;28;20213;-49
2023/03/04 09:23:19;;;;;;;13.17;3.03;;;16.30;57.90;;;;;;5066779;28;20511;-48
2023/03/04 09:25:50;;;;;;;10.30;3.13;;;16.30;58.00;;;;;;5064224;28;20218;-48
2023/03/04 09:28:22;;;;;;;9.17;2.47;;;16.30;57.90;;;;;;5079177;28;20204;-48
2023/03/04 09:30:54;;;;;;;10.40;2.50;;;16.30;58.10;;;;;;5081810;28;20631;-48
2023/03/04 09:33:25;;;;;;;8.90;2.90;;;16.30;58.50;;;;;;5065589;28;20205;-49
2023/03/04 09:35:57;;;;;;;7.70;2.73;;;16.30;58.50;;;;;;5079208;28;20213;-48
2023/03/04 09:38:29;;;;;;;9.47;2.20;;;16.30;58.30;;;;;;5084235;28;20205;-48
2023/03/04 09:41:03;;;;;;;7.60;2.20;;;16.30;58.00;;;;;;5082372;28;20237;-48
2023/03/04 09:43:40;;;;;;;6.23;2.20;;;16.30;58.00;;;;;;5047344;28;20265;-48
2023/03/04 09:46:34;;;;;;;14.43;2.83;;;16.30;58.10;;;;;;5051670;28;20189;-48
2023/03/04 09:49:05;;;;;;;11.77;2.20;;;16.40;59.40;;;;;;5059523;28;20197;-49
2023/03/04 09:52:13;;;;;;;7.23;2.30;;;16.40;60.90;;;;;;5067845;28;20190;-48
2023/03/04 09:55:24;;;;;;;7.40;1.80;;;16.40;61.40;;;;;;5023092;28;20216;-48
2023/03/04 09:58:34;;;;;;;7.07;1.60;;;16.40;61.30;;;;;;5063705;28;20194;-48
2023/03/04 10:01:30;;;;;;;8.00;1.97;;;16.30;60.50;;;;;;5039581;28;20666;-48
2023/03/04 10:04:13;;;;;;;6.73;1.90;;;16.40;60.20;;;;;;5055891;28;20197;-47
2023/03/04 10:06:55;;;;;;;5.20;1.33;;;16.50;60.30;;;;;;5059663;28;20753;-47
2023/03/04 10:10:09;;;;;;;7.50;1.90;;;16.60;60.00;;;;;;5069338;28;20251;-47
2023/03/04 10:12:42;;;;;;;6.97;1.93;;;16.70;59.90;;;;;;5020259;28;20584;-47
2023/03/04 10:15:52;;;;;;;4.83;1.67;;;16.80;59.50;;;;;;5052550;28;20220;-48
2023/03/04 10:18:41;;;;;;;4.90;1.63;;;16.80;59.90;;;;;;4999150;28;20247;-47
2023/03/04 10:21:38;;;;;;;5.23;1.67;;;16.90;58.90;;;;;;4980401;28;20215;-49
2023/03/04 10:24:16;;;;;;;7.70;1.00;;;17.00;58.60;;;;;;5050343;28;20208;-47
2023/03/04 10:26:56;;;;;;;5.83;1.30;;;17.10;58.20;;;;;;5062291;28;20622;-47
2023/03/04 10:29:33;;;;;;;10.37;1.50;;;17.20;57.80;;;;;;5048045;28;20218;-47
2023/03/04 10:32:28;;;;;;;2.70;1.00;;;17.30;57.60;;;;;;5065324;28;20215;-47
2023/03/04 10:34:57;;;;;;;3.23;1.10;;;17.30;57.40;;;;;;5058097;28;20540;-48
2023/03/04 10:37:47;;;;;;;3.50;1.13;;;17.40;57.30;;;;;;5061070;28;20201;-49
2023/03/04 10:40:24;;;;;;;3.63;1.10;;;17.40;57.00;;;;;;5056408;28;20204;-48
2023/03/04 10:42:58;;;;;;;2.83;1.03;;;17.50;57.50;;;;;;5064508;28;20220;-48
2023/03/04 10:45:34;;;;;;;5.00;1.10;;;17.60;56.70;;;;;;5087551;28;20539;-48
2023/03/04 10:48:30;;;;;;;4.00;1.40;;;17.60;56.70;;;;;;5072708;28;20726;-47
2023/03/04 10:51:20;;;;;;;3.97;1.17;;;17.60;56.50;;;;;;5082593;28;20212;-47
2023/03/04 10:54:28;;;;;;;5.77;1.33;;;17.60;56.30;;;;;;5079522;28;20235;-47
2023/03/04 10:57:04;;;;;;;2.30;0.80;;;17.70;56.20;;;;;;5003804;28;20405;-47
2023/03/04 10:59:52;;;;;;;4.40;1.23;;;17.70;56.00;;;;;;5006197;28;20223;-48
2023/03/04 11:02:34;;;;;;;3.37;0.87;;;17.80;56.00;;;;;;4996561;28;20874;-48
2023/03/04 11:05:24;;;;;;;2.97;1.00;;;17.70;55.90;;;;;;5002178;28;20216;-47
2023/03/04 11:08:00;;;;;;;2.57;1.00;;;17.80;55.80;;;;;;5006206;28;20290;-48
2023/03/04 11:10:40;;;;;;;2.43;0.93;;;17.80;55.60;;;;;;5007482;28;20198;-48
2023/03/04 11:13:18;;;;;;;2.63;0.83;;;17.80;55.60;;;;;;5005525;28;20211;-48
2023/03/04 11:15:56;;;;;;;3.40;0.80;;;17.90;55.50;;;;;;5011334;28;20227;-48
2023/03/04 11:18:31;;;;;;;1.57;0.60;;;17.90;55.30;;;;;;5005140;28;20207;-47
2023/03/04 11:21:02;;;;;;;1.47;0.60;;;17.90;55.00;;;;;;5012662;28;20219;-47
2023/03/04 11:23:59;;;;;;;4.53;0.77;;;17.90;55.20;;;;;;5008192;28;20285;-47
2023/03/04 11:26:31;;;;;;;1.40;0.60;;;17.90;55.20;;;;;;5007235;28;20661;-47
2023/03/04 11:29:31;;;;;;;1.70;0.53;;;17.80;55.20;;;;;;5004121;28;20222;-47
2023/03/04 11:32:20;;;;;;;4.97;0.80;;;17.80;55.10;;;;;;5078472;28;20684;-47
2023/03/04 11:35:07;;;;;;;3.60;1.17;;;17.70;55.00;;;;;;5077096;28;20227;-47
2023/03/04 11:38:04;;;;;;;1.80;0.87;;;17.70;55.10;;;;;;5085148;28;20470;-47
2023/03/04 11:41:04;;;;;;;1.37;0.60;;;17.70;55.20;;;;;;5084609;28;20234;-47
2023/03/04 11:43:41;;;;;;;0.97;0.50;;;17.60;55.30;;;;;;5065441;28;20241;-48
2023/03/04 11:46:35;;;;;;;2.93;0.83;;;17.60;55.20;;;;;;5035657;28;20624;-47
2023/03/04 11:49:28;;;;;;;2.73;0.83;;;17.60;55.30;;;;;;5058053;28;20189;-48
2023/03/04 11:52:37;;;;;;;1.73;0.80;;;17.50;55.30;;;;;;5060454;28;20649;-47
2023/03/04 11:55:21;;;;;;;1.70;0.83;;;17.50;55.30;;;;;;5069879;28;20197;-47
2023/03/04 11:58:25;;;;;;;1.80;0.70;;;17.50;55.50;;;;;;5070288;28;20646;-48
2023/03/04 12:01:30;;;;;;;1.70;0.73;;;17.50;55.50;;;;;;5059011;28;21053;-47
2023/03/04 12:04:35;;;;;;;2.30;0.70;;;17.50;55.60;;;;;;5061787;28;20212;-48
2023/03/04 12:07:37;;;;;;;1.53;0.60;;;17.40;55.60;;;;;;5070867;28;20189;-48
2023/03/04 12:10:43;;;;;;;0.60;0.50;;;17.40;55.70;;;;;;5069958;28;20197;-47
2023/03/04 12:13:37;;;;;;;1.93;0.83;;;17.40;55.60;;;;;;5070543;28;20618;-48
2023/03/04 12:16:18;;;;;;;1.33;0.60;;;17.30;55.70;;;;;;5068838;28;20545;-47
2023/03/04 12:19:19;;;;;;;1.10;0.57;;;17.40;55.70;;;;;;5065222;28;20217;-47
2023/03/04 12:22:20;;;;;;;2.47;0.53;;;17.40;55.80;;;;;;5062548;28;20206;-47
2023/03/04 12:25:32;;;;;;;1.20;0.60;;;17.30;55.70;;;;;;5057377;28;20193;-47
2023/03/04 12:28:28;;;;;;;1.67;0.60;;;17.30;55.90;;;;;;5069197;28;20540;-48
2023/03/04 12:31:14;;;;;;;0.93;0.57;;;17.20;55.80;;;;;;5065429;28;20217;-47
2023/03/04 12:34:40;;;;;;;0.90;0.60;;;17.20;55.90;;;;;;5067529;28;20193;-48
2023/03/04 12:37:46;;;;;;;2.10;0.73;;;17.20;55.90;;;;;;5026535;28;20207;-47
2023/03/04 12:40:50;;;;;;;1.53;0.50;;;17.20;55.90;;;;;;5068108;28;20275;-47
2023/03/04 12:43:58;;;;;;;1.07;0.53;;;17.20;55.90;;;;;;5081619;28;20323;-47
2023/03/04 12:47:10;;;;;;;0.57;0.50;;;17.20;56.10;;;;;;5078210;28;20607;-47
2023/03/04 12:50:09;;;;;;;0.50;0.50;;;17.10;55.90;;;;;;5079159;28;20254;-47
2023/03/04 12:53:16;;;;;;;1.17;0.70;;;17.10;56.10;;;;;;5069137;28;20186;-51
2023/03/04 12:55:46;;;;;;;1.33;0.50;;;17.10;56.10;;;;;;5075314;28;20189;-47
2023/03/04 12:58:30;;;;;;;1.00;0.77;;;17.10;56.20;;;;;;5087000;28;20196;-48
2023/03/04 13:01:26;;;;;;;1.13;0.63;;;17.10;56.20;;;;;;5071039;28;20623;-47
2023/03/04 13:04:12;;;;;;;2.10;0.60;;;17.10;56.00;;;;;;5086264;28;20204;-47
2023/03/04 13:07:09;;;;;;;1.27;0.57;;;17.10;56.10;;;;;;5081731;28;20562;-47
2023/03/04 13:09:59;;;;;;;1.47;0.60;;;17.00;56.10;;;;;;5080633;28;20843;-48
2023/03/04 13:12:44;;;;;;;1.40;0.60;;;17.00;56.30;;;;;;5083837;28;20212;-48
2023/03/04 13:15:36;;;;;;;2.77;0.60;;;17.00;56.30;;;;;;5070945;28;20208;-47
2023/03/04 13:18:33;;;;;;;0.90;0.50;;;17.00;56.40;;;;;;5085946;28;20220;-48
2023/03/04 13:21:24;;;;;;;2.20;0.50;;;17.00;56.40;;;;;;5089870;28;20266;-48
2023/03/04 13:23:54;;;;;;;1.93;0.77;;;17.00;56.40;;;;;;5070722;28;20209;-47
2023/03/04 13:26:36;;;;;;;1.37;0.50;;;16.90;56.40;;;;;;5063603;28;20189;-48
2023/03/04 13:29:23;;;;;;;1.10;0.60;;;17.00;56.40;;;;;;5067172;28;20209;-48
2023/03/04 13:32:11;;;;;;;1.00;0.50;;;17.00;56.40;;;;;;5089470;28;20189;-47
2023/03/04 13:34:56;;;;;;;0.77;0.40;;;17.00;56.40;;;;;;5085144;28;20217;-47